createdAt,value
2018-10-07T00:01:14.382Z,98078.03
2018-10-07T00:03:42.680Z,98077.34
2018-10-07T00:06:10.836Z,98075.02
2018-10-07T00:08:38.975Z,98078.61
2018-10-07T00:11:07.180Z,98077.44
2018-10-07T00:13:35.506Z,98082.23
2018-10-07T00:16:03.692Z,98080.70
2018-10-07T00:18:31.879Z,98084.98
2018-10-07T00:21:00.227Z,98084.31
2018-10-07T00:23:28.536Z,98084.95
2018-10-07T00:25:56.723Z,98088.55
2018-10-07T00:28:25.084Z,98094.37
2018-10-07T00:30:53.346Z,98097.68
2018-10-07T00:33:21.566Z,98101.78
2018-10-07T00:35:49.716Z,98096.36
2018-10-07T00:38:17.895Z,98096.05
2018-10-07T00:40:46.239Z,98104.28
2018-10-07T00:43:14.381Z,98092.84
2018-10-07T00:45:42.574Z,98094.65
2018-10-07T00:48:10.748Z,98102.33
2018-10-07T00:50:38.909Z,98106.48
2018-10-07T00:53:07.146Z,98104.56
2018-10-07T00:55:35.357Z,98104.86
2018-10-07T00:58:03.603Z,98101.81
2018-10-07T01:00:31.825Z,98098.02
2018-10-07T01:02:59.984Z,98096.19
2018-10-07T01:05:28.412Z,98094.55
2018-10-07T01:07:56.686Z,98104.19
2018-10-07T01:10:24.908Z,98096.54
2018-10-07T01:12:53.159Z,98104.08
2018-10-07T01:15:21.476Z,98104.08
2018-10-07T01:17:49.636Z,98102.64
2018-10-07T01:20:17.817Z,98104.57
2018-10-07T01:22:46.004Z,98110.49
2018-10-07T01:25:14.199Z,98120.02
2018-10-07T01:27:42.359Z,98108.03
2018-10-07T01:30:10.528Z,98111.86
2018-10-07T01:32:38.668Z,98115.47
2018-10-07T01:35:07.049Z,98115.30
2018-10-07T01:37:35.219Z,98124.70
2018-10-07T01:40:03.430Z,98128.88
2018-10-07T01:42:31.596Z,98128.16
2018-10-07T01:44:59.801Z,98129.06
2018-10-07T01:47:27.950Z,98126.58
2018-10-07T01:49:56.224Z,98126.73
2018-10-07T01:52:24.446Z,98128.26
2018-10-07T01:54:52.731Z,98122.65
2018-10-07T01:57:21.019Z,98123.69
2018-10-07T01:59:49.179Z,98128.91
2018-10-07T02:02:17.350Z,98128.80
2018-10-07T02:04:45.572Z,98122.52
2018-10-07T02:07:13.858Z,98122.95
2018-10-07T02:09:42.122Z,98128.07
2018-10-07T02:12:10.377Z,98129.39
2018-10-07T02:14:38.611Z,98124.07
2018-10-07T02:17:06.857Z,98129.70
2018-10-07T02:19:35.041Z,98136.44
2018-10-07T02:22:03.191Z,98143.56
2018-10-07T02:24:31.505Z,98142.01
2018-10-07T02:26:59.767Z,98149.59
2018-10-07T02:29:27.908Z,98143.61
2018-10-07T02:31:56.119Z,98141.56
2018-10-07T02:34:24.375Z,98140.19
2018-10-07T02:36:52.988Z,98134.55
2018-10-07T02:39:21.321Z,98132.81
2018-10-07T02:41:49.533Z,98137.25
2018-10-07T02:44:17.916Z,98142.67
2018-10-07T02:46:46.100Z,98141.61
2018-10-07T02:49:14.373Z,98143.56
2018-10-07T02:51:42.737Z,98145.31
2018-10-07T02:54:10.935Z,98153.68
2018-10-07T02:56:39.206Z,98156.03
2018-10-07T02:59:07.552Z,98157.98
2018-10-07T03:01:35.753Z,98159.98
2018-10-07T03:04:04.131Z,98170.88
2018-10-07T03:06:32.399Z,98173.72
2018-10-07T03:09:00.573Z,98179.77
2018-10-07T03:11:28.905Z,98178.15
2018-10-07T03:13:57.095Z,98174.92
2018-10-07T03:16:25.411Z,98181.02
2018-10-07T03:18:53.772Z,98186.34
2018-10-07T03:21:21.969Z,98185.72
2018-10-07T03:23:50.293Z,98192.55
2018-10-07T03:26:18.486Z,98186.29
2018-10-07T03:28:46.691Z,98195.63
2018-10-07T03:31:14.980Z,98186.14
2018-10-07T03:33:43.254Z,98198.52
2018-10-07T03:36:11.559Z,98196.37
2018-10-07T03:38:39.751Z,98203.10
2018-10-07T03:41:08.172Z,98209.91
2018-10-07T03:43:36.353Z,98213.80
2018-10-07T03:46:04.529Z,98220.40
2018-10-07T03:48:32.735Z,98215.29
2018-10-07T03:51:00.927Z,98215.98
2018-10-07T03:53:29.109Z,98215.29
2018-10-07T03:55:57.300Z,98226.51
2018-10-07T03:58:25.491Z,98222.38
2018-10-07T04:00:53.856Z,98229.58
2018-10-07T04:03:22.511Z,98224.16
2018-10-07T04:05:50.791Z,98226.88
2018-10-07T04:08:18.941Z,98230.38
2018-10-07T04:10:47.121Z,98229.91
2018-10-07T04:13:15.275Z,98227.05
2018-10-07T04:15:43.545Z,98233.02
2018-10-07T04:18:11.999Z,98233.23
2018-10-07T04:20:40.377Z,98229.14
2018-10-07T04:23:08.577Z,98227.34
2018-10-07T04:25:37.381Z,98229.83
2018-10-07T04:28:05.555Z,98233.30
2018-10-07T04:30:33.730Z,98228.88
2018-10-07T04:33:01.896Z,98233.30
2018-10-07T04:35:30.073Z,98231.20
2018-10-07T04:37:58.225Z,98240.08
2018-10-07T04:40:26.347Z,98233.11
2018-10-07T04:42:54.607Z,98240.71
2018-10-07T04:45:22.876Z,98235.78
2018-10-07T04:47:51.042Z,98227.16
2018-10-07T04:50:19.227Z,98231.91
2018-10-07T04:52:47.410Z,98229.64
2018-10-07T04:55:15.624Z,98234.13
2018-10-07T04:57:43.921Z,98235.30
2018-10-07T05:00:12.079Z,98244.16
2018-10-07T05:02:40.303Z,98251.42
2018-10-07T05:05:08.839Z,98251.56
2018-10-07T05:07:36.984Z,98252.19
2018-10-07T05:10:16.621Z,98253.81
2018-10-07T05:12:44.876Z,98254.80
2018-10-07T05:15:13.036Z,98262.96
2018-10-07T05:17:41.272Z,98257.11
2018-10-07T05:20:09.513Z,98264.08
2018-10-07T05:22:37.761Z,98265.37
2018-10-07T05:25:05.928Z,98271.41
2018-10-07T05:27:34.087Z,98281.49
2018-10-07T05:30:02.284Z,98288.89
2018-10-07T05:32:30.496Z,98297.61
2018-10-07T05:34:58.695Z,98294.94
2018-10-07T05:37:26.933Z,98304.44
2018-10-07T05:39:55.271Z,98300.11
2018-10-07T05:42:23.541Z,98317.37
2018-10-07T05:44:51.813Z,98307.41
2018-10-07T05:47:19.943Z,98313.20
2018-10-07T05:49:48.110Z,98313.50
2018-10-07T05:52:16.271Z,98320.82
2018-10-07T05:54:44.438Z,98323.06
2018-10-07T05:57:12.564Z,98328.32
2018-10-07T05:59:41.179Z,98333.38
2018-10-07T06:02:09.819Z,98331.55
2018-10-07T06:04:44.519Z,98328.66
2018-10-07T06:07:12.820Z,98334.57
2018-10-07T06:09:41.615Z,98342.97
2018-10-07T06:12:09.775Z,98347.09
2018-10-07T06:15:49.047Z,98344.28
2018-10-07T06:18:17.243Z,98354.45
2018-10-07T06:20:45.539Z,98357.96
2018-10-07T06:23:13.717Z,98362.22
2018-10-07T06:25:42.291Z,98367.98
2018-10-07T06:28:10.527Z,98361.57
2018-10-07T06:30:38.682Z,98363.69
2018-10-07T06:33:06.843Z,98368.87
2018-10-07T06:35:35.659Z,98375.13
2018-10-07T06:38:04.472Z,98371.59
2018-10-07T06:40:32.623Z,98375.47
2018-10-07T06:43:00.827Z,98375.58
2018-10-07T06:45:29.075Z,98375.50
2018-10-07T06:47:57.151Z,98377.17
2018-10-07T06:50:25.307Z,98381.25
2018-10-07T06:52:53.611Z,98380.08
2018-10-07T06:55:21.768Z,98388.61
2018-10-07T06:57:50.036Z,98389.98
2018-10-07T07:00:18.204Z,98389.50
2018-10-07T07:02:46.423Z,98391.52
2018-10-07T07:05:14.560Z,98393.95
2018-10-07T07:07:42.784Z,98401.36
2018-10-07T07:10:10.942Z,98408.95
2018-10-07T07:12:39.180Z,98404.38
2018-10-07T07:15:07.372Z,98408.22
2018-10-07T07:17:35.649Z,98413.42
2018-10-07T07:20:04.055Z,98412.29
2018-10-07T07:22:32.167Z,98411.81
2018-10-07T07:25:00.307Z,98421.86
2018-10-07T07:27:28.472Z,98419.21
2018-10-07T07:29:56.997Z,98423.20
2018-10-07T07:32:25.186Z,98427.31
2018-10-07T07:34:53.427Z,98426.16
2018-10-07T07:37:21.755Z,98428.47
2018-10-07T07:39:49.948Z,98439.23
2018-10-07T07:42:18.142Z,98435.20
2018-10-07T07:44:46.376Z,98442.58
2018-10-07T07:47:14.523Z,98438.64
2018-10-07T07:49:42.700Z,98451.06
2018-10-07T07:52:10.853Z,98451.14
2018-10-07T07:54:38.983Z,98452.30
2018-10-07T07:57:07.437Z,98458.86
2018-10-07T07:59:35.859Z,98463.11
2018-10-07T08:02:04.116Z,98459.51
2018-10-07T08:04:32.304Z,98462.02
2018-10-07T08:07:00.535Z,98461.09
2018-10-07T08:09:28.745Z,98464.57
2018-10-07T08:11:57.060Z,98473.88
2018-10-07T08:14:25.235Z,98465.32
2018-10-07T08:16:53.524Z,98468.23
2018-10-07T08:19:21.811Z,98472.71
2018-10-07T08:21:50.041Z,98472.22
2018-10-07T08:24:18.313Z,98477.37
2018-10-07T08:26:47.544Z,98469.89
2018-10-07T08:29:15.907Z,98467.20
2018-10-07T08:31:44.172Z,98474.88
2018-10-07T08:34:12.556Z,98479.17
2018-10-07T08:36:40.955Z,98474.53
2018-10-07T08:39:09.940Z,98476.67
2018-10-07T08:41:38.457Z,98483.78
2018-10-07T08:44:06.878Z,98485.08
2018-10-07T08:46:35.135Z,98493.67
2018-10-07T08:49:03.507Z,98495.28
2018-10-07T08:51:31.964Z,98499.26
2018-10-07T08:54:00.218Z,98505.22
2018-10-07T08:56:28.543Z,98501.69
2018-10-07T08:58:56.783Z,98503.39
2018-10-07T09:01:24.925Z,98508.87
2018-10-07T09:03:53.212Z,98515.47
2018-10-07T09:06:21.543Z,98513.96
2018-10-07T09:08:49.760Z,98513.26
2018-10-07T09:11:18.872Z,98512.57
2018-10-07T09:13:47.132Z,98512.91
2018-10-07T09:16:15.352Z,98515.71
2018-10-07T09:18:43.524Z,98508.17
2018-10-07T09:21:11.688Z,98504.49
2018-10-07T09:23:39.925Z,98504.00
2018-10-07T09:26:08.257Z,98501.08
2018-10-07T09:28:37.090Z,98503.61
2018-10-07T09:31:05.549Z,98498.91
2018-10-07T09:33:34.280Z,98512.23
2018-10-07T09:36:02.668Z,98519.36
2018-10-07T09:38:30.934Z,98522.48
2018-10-07T09:40:59.207Z,98526.55
2018-10-07T09:43:27.431Z,98527.59
2018-10-07T09:45:55.787Z,98523.00
2018-10-07T09:48:24.041Z,98519.52
2018-10-07T09:50:52.537Z,98520.69
2018-10-07T09:53:20.997Z,98517.80
2018-10-07T09:55:49.827Z,98524.41
2018-10-07T09:58:17.982Z,98516.30
2018-10-07T10:00:46.239Z,98521.73
2018-10-07T10:03:14.408Z,98525.92
2018-10-07T10:05:42.657Z,98522.77
2018-10-07T10:08:10.917Z,98523.21
2018-10-07T10:10:39.408Z,98517.80
2018-10-07T10:13:07.807Z,98519.75
2018-10-07T10:15:36.298Z,98521.94
2018-10-07T10:18:07.131Z,98523.48
2018-10-07T10:20:44.774Z,98519.12
2018-10-07T10:24:06.556Z,98517.70
2018-10-07T10:26:40.619Z,98525.16
2018-10-07T10:29:17.556Z,98522.87
2018-10-07T10:34:00.681Z,98527.77
2018-10-07T10:36:35.493Z,98524.93
2018-10-07T10:39:15.152Z,98532.85
2018-10-07T10:41:50.422Z,98533.42
2018-10-07T10:44:31.192Z,98525.72
2018-10-07T10:47:12.128Z,98530.73
2018-10-07T10:49:47.767Z,98531.28
2018-10-07T10:52:27.864Z,98534.34
2018-10-07T10:55:35.652Z,98533.30
2018-10-07T10:58:09.602Z,98529.65
2018-10-07T11:00:40.864Z,98529.81
2018-10-07T11:03:13.589Z,98526.94
2018-10-07T11:05:52.440Z,98522.92
2018-10-07T11:08:34.738Z,98521.52
2018-10-07T11:11:07.783Z,98509.62
2018-10-07T11:13:42.639Z,98514.28
2018-10-07T11:18:22.231Z,98509.72
2018-10-07T11:21:17.833Z,98504.89
2018-10-07T11:24:04.384Z,98509.17
2018-10-07T11:26:41.200Z,98510.44
2018-10-07T11:29:18.734Z,98518.01
2018-10-07T11:31:53.014Z,98515.57
2018-10-07T11:34:37.505Z,98521.88
2018-10-07T11:37:13.097Z,98510.31
2018-10-07T11:39:57.081Z,98514.09
2018-10-07T11:42:30.703Z,98522.17
2018-10-07T11:45:11.870Z,98520.91
2018-10-07T11:49:53.568Z,98520.57
2018-10-07T11:52:47.744Z,98522.45
2018-10-07T11:55:16.125Z,98531.33
2018-10-07T11:57:44.571Z,98525.39
2018-10-07T12:00:12.994Z,98523.13
2018-10-07T12:02:41.240Z,98517.65
2018-10-07T12:05:09.536Z,98520.34
2018-10-07T12:07:38.041Z,98518.46
2018-10-07T12:10:06.601Z,98516.43
2018-10-07T12:12:35.440Z,98521.38
2018-10-07T12:15:04.423Z,98527.05
2018-10-07T12:17:32.967Z,98521.89
2018-10-07T12:20:01.618Z,98522.64
2018-10-07T12:22:30.662Z,98526.44
2018-10-07T12:24:59.189Z,98522.20
2018-10-07T12:27:28.412Z,98530.56
2018-10-07T12:29:57.212Z,98530.09
2018-10-07T12:32:25.603Z,98531.11
2018-10-07T12:34:54.224Z,98536.34
2018-10-07T12:37:22.926Z,98537.29
2018-10-07T12:39:51.389Z,98539.25
2018-10-07T12:42:19.995Z,98533.64
2018-10-07T12:44:48.131Z,98536.16
2018-10-07T12:47:16.526Z,98533.14
2018-10-07T12:49:44.760Z,98539.96
2018-10-07T12:52:13.325Z,98547.50
2018-10-07T12:54:42.486Z,98548.72
2018-10-07T12:57:10.853Z,98548.38
2018-10-07T12:59:39.164Z,98552.19
2018-10-07T13:02:07.636Z,98555.72
2018-10-07T13:04:36.155Z,98554.66
2018-10-07T13:07:04.428Z,98559.39
2018-10-07T13:09:32.914Z,98555.05
2018-10-07T13:12:01.034Z,98553.58
2018-10-07T13:14:29.263Z,98561.23
2018-10-07T13:16:57.784Z,98558.78
2018-10-07T13:19:26.328Z,98560.98
2018-10-07T13:21:55.665Z,98563.38
2018-10-07T13:24:24.156Z,98560.43
2018-10-07T13:26:52.752Z,98565.22
2018-10-07T13:29:21.067Z,98558.91
2018-10-07T13:31:49.511Z,98559.48
2018-10-07T13:34:17.944Z,98565.97
2018-10-07T13:36:46.254Z,98563.91
2018-10-07T13:39:14.615Z,98571.08
2018-10-07T13:41:42.964Z,98571.66
2018-10-07T13:44:11.466Z,98571.15
2018-10-07T13:46:39.889Z,98572.28
2018-10-07T13:49:08.411Z,98574.90
2018-10-07T13:51:36.887Z,98574.55
2018-10-07T13:54:05.324Z,98571.45
2018-10-07T13:56:33.897Z,98566.98
2018-10-07T13:59:02.357Z,98575.43
2018-10-07T14:01:30.696Z,98576.09
2018-10-07T14:03:59.269Z,98574.12
2018-10-07T14:06:27.701Z,98572.74
2018-10-07T14:08:57.044Z,98573.88
2018-10-07T14:11:25.514Z,98573.67
2018-10-07T14:13:53.932Z,98572.07
2018-10-07T14:16:22.334Z,98571.59
2018-10-07T14:18:50.725Z,98574.68
2018-10-07T14:21:19.164Z,98573.16
2018-10-07T14:23:47.480Z,98577.69
2018-10-07T14:26:18.902Z,98571.86
2018-10-07T14:28:47.057Z,98574.95
2018-10-07T14:31:15.392Z,98568.17
2018-10-07T14:33:43.976Z,98567.52
2018-10-07T14:36:12.430Z,98567.97
2018-10-07T14:38:41.158Z,98569.84
2018-10-07T14:41:09.507Z,98567.70
2018-10-07T14:43:37.864Z,98571.61
2018-10-07T14:46:06.324Z,98578.02
2018-10-07T14:48:34.797Z,98580.79
2018-10-07T14:51:03.256Z,98577.73
2018-10-07T14:53:31.669Z,98576.59
2018-10-07T14:55:59.973Z,98577.06
2018-10-07T14:58:28.514Z,98577.53
2018-10-07T15:00:56.969Z,98575.27
2018-10-07T15:03:25.440Z,98578.66
2018-10-07T15:05:53.961Z,98588.11
2018-10-07T15:08:22.438Z,98579.45
2018-10-07T15:10:50.573Z,98588.32
2018-10-07T15:13:19.068Z,98599.30
2018-10-07T15:15:47.490Z,98594.25
2018-10-07T15:18:15.917Z,98599.55
2018-10-07T15:20:44.305Z,98603.34
2018-10-07T15:23:12.689Z,98603.32
2018-10-07T15:25:41.085Z,98608.75
2018-10-07T15:28:09.389Z,98607.98
2018-10-07T15:30:37.716Z,98604.45
2018-10-07T15:33:05.852Z,98607.63
2018-10-07T15:35:34.159Z,98609.04
2018-10-07T15:38:02.633Z,98603.61
2018-10-07T15:40:31.133Z,98610.09
2018-10-07T15:43:00.140Z,98612.10
2018-10-07T15:45:28.607Z,98614.11
2018-10-07T15:47:57.144Z,98616.07
2018-10-07T15:50:25.527Z,98625.01
2018-10-07T15:52:54.008Z,98617.61
2018-10-07T15:55:22.531Z,98623.23
2018-10-07T15:57:50.736Z,98620.63
2018-10-07T16:00:19.059Z,98622.00
2018-10-07T16:02:47.506Z,98626.47
2018-10-07T16:05:15.906Z,98623.11
2018-10-07T16:07:44.196Z,98626.61
2018-10-07T16:10:12.804Z,98627.25
2018-10-07T16:12:40.982Z,98627.86
2018-10-07T16:15:09.205Z,98638.63
2018-10-07T16:17:37.712Z,98638.13
2018-10-07T16:20:06.191Z,98637.20
2018-10-07T16:22:34.424Z,98641.31
2018-10-07T16:25:02.902Z,98651.31
2018-10-07T16:27:31.672Z,98645.75
2018-10-07T16:29:59.843Z,98647.63
2018-10-07T16:32:28.356Z,98647.33
2018-10-07T16:34:56.961Z,98648.73
2018-10-07T16:37:25.373Z,98652.97
2018-10-07T16:39:53.903Z,98662.06
2018-10-07T16:42:22.384Z,98666.50
2018-10-07T16:44:50.813Z,98669.88
2018-10-07T16:47:19.241Z,98667.09
2018-10-07T16:49:47.612Z,98677.80
2018-10-07T16:52:15.987Z,98680.89
2018-10-07T16:54:44.413Z,98686.61
2018-10-07T16:57:12.617Z,98687.44
2018-10-07T16:59:40.996Z,98691.29
2018-10-07T17:02:09.417Z,98696.25
2018-10-07T17:04:37.836Z,98697.59
2018-10-07T17:07:06.409Z,98696.46
2018-10-07T17:09:34.644Z,98708.53
2018-10-07T17:12:03.419Z,98707.70
2018-10-07T17:14:31.644Z,98700.92
2018-10-07T17:16:59.814Z,98709.41
2018-10-07T17:19:28.022Z,98716.73
2018-10-07T17:21:56.310Z,98721.92
2018-10-07T17:24:24.451Z,98716.97
2018-10-07T17:26:52.654Z,98727.13
2018-10-07T17:29:21.012Z,98725.97
2018-10-07T17:31:49.501Z,98732.24
2018-10-07T17:34:17.700Z,98735.25
2018-10-07T17:36:45.906Z,98739.08
2018-10-07T17:39:14.190Z,98747.41
2018-10-07T17:41:42.574Z,98753.38
2018-10-07T17:44:10.846Z,98752.91
2018-10-07T17:46:39.146Z,98761.88
2018-10-07T17:49:07.547Z,98765.04
2018-10-07T17:51:35.765Z,98770.84
2018-10-07T17:54:04.679Z,98775.33
2018-10-07T17:56:32.893Z,98776.98
2018-10-07T17:59:01.162Z,98781.14
2018-10-07T18:01:29.320Z,98788.44
2018-10-07T18:03:57.548Z,98798.22
2018-10-07T18:06:25.777Z,98800.88
2018-10-07T18:08:54.051Z,98799.85
2018-10-07T18:11:22.162Z,98801.78
2018-10-07T18:13:50.503Z,98812.05
2018-10-07T18:16:18.652Z,98804.39
2018-10-07T18:18:47.042Z,98806.05
2018-10-07T18:21:15.380Z,98813.64
2018-10-07T18:23:43.464Z,98812.44
2018-10-07T18:26:11.640Z,98820.54
2018-10-07T18:28:39.956Z,98824.84
2018-10-07T18:31:08.136Z,98824.83
2018-10-07T18:33:36.471Z,98833.41
2018-10-07T18:36:04.648Z,98834.89
2018-10-07T18:38:33.080Z,98835.87
2018-10-07T18:41:01.711Z,98832.83
2018-10-07T18:43:30.145Z,98846.88
2018-10-07T18:45:58.445Z,98853.51
2018-10-07T18:48:26.650Z,98861.52
2018-10-07T18:50:54.891Z,98861.23
2018-10-07T18:53:23.104Z,98870.81
2018-10-07T18:55:51.399Z,98872.94
2018-10-07T18:58:19.563Z,98877.23
2018-10-07T19:00:47.872Z,98878.52
2018-10-07T19:03:16.008Z,98884.98
2018-10-07T19:05:44.230Z,98895.83
2018-10-07T19:08:12.429Z,98899.59
2018-10-07T19:10:40.570Z,98900.07
2018-10-07T19:13:08.777Z,98909.73
2018-10-07T19:15:37.879Z,98915.34
2018-10-07T19:18:06.174Z,98924.41
2018-10-07T19:20:34.351Z,98921.75
2018-10-07T19:23:02.493Z,98923.61
2018-10-07T19:25:30.784Z,98927.53
2018-10-07T19:27:59.027Z,98933.28
2018-10-07T19:30:27.228Z,98935.81
2018-10-07T19:32:55.702Z,98931.08
2018-10-07T19:35:23.911Z,98937.58
2018-10-07T19:37:52.127Z,98931.77
2018-10-07T19:40:20.282Z,98935.38
2018-10-07T19:42:48.465Z,98941.30
2018-10-07T19:45:16.708Z,98939.52
2018-10-07T19:47:44.947Z,98949.34
2018-10-07T19:50:13.131Z,98948.58
2018-10-07T19:52:41.330Z,98953.80
2018-10-07T19:55:09.579Z,98956.05
2018-10-07T19:57:37.821Z,98959.54
2018-10-07T20:00:06.008Z,98948.66
2018-10-07T20:02:34.187Z,98951.47
2018-10-07T20:05:02.396Z,98954.75
2018-10-07T20:07:30.608Z,98957.13
2018-10-07T20:09:58.753Z,98963.81
2018-10-07T20:12:26.974Z,98960.00
2018-10-07T20:14:55.281Z,98958.67
2018-10-07T20:17:23.542Z,98967.62
2018-10-07T20:19:51.771Z,98971.27
2018-10-07T20:22:20.052Z,98972.84
2018-10-07T20:24:48.208Z,98969.94
2018-10-07T20:27:16.354Z,98968.55
2018-10-07T20:29:44.522Z,98969.31
2018-10-07T20:32:12.680Z,98968.32
2018-10-07T20:34:41.145Z,98975.84
2018-10-07T20:37:09.371Z,98974.45
2018-10-07T20:39:37.695Z,98976.31
2018-10-07T20:42:05.863Z,98982.17
2018-10-07T20:44:34.087Z,98987.22
2018-10-07T20:47:02.276Z,98995.27
2018-10-07T20:49:30.544Z,98994.64
2018-10-07T20:51:58.786Z,98996.86
2018-10-07T20:54:27.039Z,98998.14
2018-10-07T20:56:55.419Z,98999.42
2018-10-07T20:59:23.634Z,98999.00
2018-10-07T21:01:51.828Z,99000.04
2018-10-07T21:04:20.037Z,99001.64
2018-10-07T21:06:48.261Z,99001.45
2018-10-07T21:09:16.425Z,99014.40
2018-10-07T21:11:44.676Z,99011.67
2018-10-07T21:14:12.968Z,99008.89
2018-10-07T21:16:41.180Z,99006.20
2018-10-07T21:19:09.454Z,99002.61
2018-10-07T21:21:37.618Z,99003.70
2018-10-07T21:24:05.845Z,99003.14
2018-10-07T21:26:34.149Z,99003.77
2018-10-07T21:29:02.293Z,99007.05
2018-10-07T21:31:30.484Z,99007.80
2018-10-07T21:33:58.685Z,99005.30
2018-10-07T21:36:26.887Z,99008.17
2018-10-07T21:38:55.164Z,99018.05
2018-10-07T21:41:23.401Z,99013.78
2018-10-07T21:43:51.628Z,99019.66
2018-10-07T21:46:19.810Z,99008.44
2018-10-07T21:48:47.983Z,99008.71
2018-10-07T21:51:16.270Z,98999.31
2018-10-07T21:53:44.663Z,99002.69
2018-10-07T21:56:13.036Z,99006.70
2018-10-07T21:58:41.048Z,99011.13
2018-10-07T22:02:39.976Z,99018.48
2018-10-07T22:05:08.123Z,99005.59
2018-10-07T22:07:36.263Z,99009.17
2018-10-07T22:10:04.725Z,99014.23
2018-10-07T22:12:33.303Z,99008.55
2018-10-07T22:15:01.660Z,99005.91
2018-10-07T22:17:29.847Z,99013.23
2018-10-07T22:19:58.135Z,99010.73
2018-10-07T22:22:26.375Z,99006.42
2018-10-07T22:24:54.674Z,99002.13
2018-10-07T22:27:22.841Z,98998.46
2018-10-07T22:29:51.000Z,98992.23
2018-10-07T22:32:19.143Z,99002.42
2018-10-07T22:34:47.335Z,99002.78
2018-10-07T22:37:16.492Z,98996.09
2018-10-07T22:39:44.796Z,99001.02
2018-10-07T22:42:13.019Z,98997.80
2018-10-07T22:44:41.165Z,99004.73
2018-10-07T22:47:09.364Z,99009.99
2018-10-07T22:49:37.544Z,99010.00
2018-10-07T22:52:05.971Z,99017.66
2018-10-07T22:54:34.123Z,99012.99
2018-10-07T22:57:02.275Z,99021.99
2018-10-07T22:59:30.584Z,99015.16
2018-10-07T23:01:58.841Z,99008.67
2018-10-07T23:04:27.007Z,99012.37
2018-10-07T23:06:55.159Z,99008.09
2018-10-07T23:09:23.453Z,99007.27
2018-10-07T23:11:51.699Z,98999.16
2018-10-07T23:14:19.960Z,99006.21
2018-10-07T23:16:48.084Z,99015.42
2018-10-07T23:19:16.381Z,99023.66
2018-10-07T23:21:44.552Z,99019.38
2018-10-07T23:24:12.779Z,99021.16
2018-10-07T23:26:41.041Z,99022.94
2018-10-07T23:29:09.257Z,99021.28
2018-10-07T23:31:37.536Z,99014.83
2018-10-07T23:34:05.693Z,99022.00
2018-10-07T23:36:33.904Z,99027.73
2018-10-07T23:39:02.104Z,99028.80
2018-10-07T23:41:30.263Z,99032.87
2018-10-07T23:43:58.503Z,99032.02
2018-10-07T23:46:26.699Z,99039.56
2018-10-07T23:48:55.082Z,99028.32
2018-10-07T23:51:23.313Z,99031.20
2018-10-07T23:53:51.527Z,99033.96
2018-10-07T23:56:19.779Z,99036.58
2018-10-07T23:58:48.929Z,99040.40
